Time;durP1;ratioP1;P1;durP2;ratioP2;P2;SDS_P1;SDS_P2;PMS_P1;PMS_P2;Temp;Humidity;BMP_temperature;BMP_pressure;BME280_temperature;BME280_humidity;BME280_pressure;Samples;Min_cycle;Max_cycle;Signal;HPM_P1;HPM_P2
2023/04/24 00:02:21;;;;;;;5.10;2.03;;;10.20;99.90;;;;;;4879823;29;20225;-75
2023/04/24 00:04:50;;;;;;;3.40;1.90;;;10.20;99.90;;;;;;4881064;29;20298;-78
2023/04/24 00:07:19;;;;;;;4.17;2.23;;;10.20;99.90;;;;;;4880820;29;20214;-79
2023/04/24 00:09:49;;;;;;;2.70;1.90;;;10.20;99.90;;;;;;4880351;29;20581;-76
2023/04/24 00:12:17;;;;;;;3.90;2.10;;;10.20;99.90;;;;;;4898344;29;20587;-78
2023/04/24 00:14:45;;;;;;;3.53;2.37;;;10.10;99.90;;;;;;4894742;29;20597;-78
2023/04/24 00:17:13;;;;;;;4.13;2.03;;;10.10;99.90;;;;;;4880330;29;20260;-75
2023/04/24 00:19:41;;;;;;;3.03;1.80;;;10.10;99.90;;;;;;4880121;29;20210;-77
2023/04/24 00:22:10;;;;;;;2.63;2.07;;;10.10;99.90;;;;;;4880290;29;20210;-77
2023/04/24 00:24:38;;;;;;;2.50;2.00;;;10.00;99.90;;;;;;4880249;29;20218;-78
2023/04/24 00:27:08;;;;;;;3.83;2.00;;;10.00;99.90;;;;;;4880210;29;20215;-78
2023/04/24 00:29:36;;;;;;;1.80;1.70;;;10.00;99.90;;;;;;4879340;29;20693;-80
2023/04/24 00:32:04;;;;;;;3.70;1.90;;;10.00;99.90;;;;;;4879841;29;20210;-77
2023/04/24 00:34:33;;;;;;;2.23;1.80;;;10.00;99.90;;;;;;4880096;29;20221;-79
2023/04/24 00:37:01;;;;;;;2.30;1.70;;;9.90;99.90;;;;;;4879882;29;20242;-78
2023/04/24 00:39:29;;;;;;;2.77;2.00;;;9.90;99.90;;;;;;4879722;29;20217;-79
2023/04/24 00:41:57;;;;;;;2.37;1.70;;;9.90;99.90;;;;;;4879413;29;20692;-78
2023/04/24 00:44:27;;;;;;;2.83;1.80;;;9.90;99.90;;;;;;4879908;29;20225;-78
2023/04/24 00:46:56;;;;;;;2.10;1.77;;;9.90;99.90;;;;;;4879487;29;20665;-77
2023/04/24 00:49:24;;;;;;;3.50;2.00;;;9.90;99.90;;;;;;4879901;29;20570;-80
2023/04/24 00:51:52;;;;;;;2.57;2.37;;;9.90;99.90;;;;;;4879504;29;20213;-78
2023/04/24 00:54:20;;;;;;;2.83;1.80;;;9.90;99.90;;;;;;4879724;29;20225;-76
2023/04/24 00:56:48;;;;;;;1.80;1.70;;;9.90;99.90;;;;;;4879548;29;20681;-79
2023/04/24 00:59:17;;;;;;;2.13;1.80;;;9.70;99.90;;;;;;4879700;29;20350;-80
2023/04/24 01:01:47;;;;;;;2.77;1.50;;;9.90;99.90;;;;;;4879106;29;20225;-78
2023/04/24 01:04:17;;;;;;;3.17;1.60;;;9.90;99.90;;;;;;4879574;29;20258;-76
2023/04/24 01:06:46;;;;;;;1.93;1.63;;;9.90;99.90;;;;;;4879838;29;20194;-79
2023/04/24 01:09:15;;;;;;;2.43;1.50;;;9.80;99.90;;;;;;4880192;29;20234;-79
2023/04/24 01:11:44;;;;;;;2.60;1.63;;;9.80;99.90;;;;;;4879139;29;20744;-78
2023/04/24 01:14:12;;;;;;;3.57;1.70;;;9.80;99.90;;;;;;4878565;29;20224;-76
2023/04/24 01:16:41;;;;;;;1.90;1.70;;;9.80;99.90;;;;;;4879093;29;20320;-78
2023/04/24 01:19:12;;;;;;;3.27;1.60;;;9.80;99.90;;;;;;4879259;29;20550;-79
2023/04/24 01:21:40;;;;;;;1.97;1.70;;;9.70;99.90;;;;;;4879432;29;20199;-79
2023/04/24 01:24:10;;;;;;;3.00;1.90;;;9.70;99.90;;;;;;4888936;29;20202;-77
2023/04/24 01:26:38;;;;;;;2.97;1.63;;;9.70;99.90;;;;;;4879466;29;20218;-76
2023/04/24 01:29:06;;;;;;;4.40;1.70;;;9.70;99.90;;;;;;4878980;29;20246;-78
2023/04/24 01:31:35;;;;;;;3.23;1.67;;;9.70;99.90;;;;;;4879207;29;20202;-77
2023/04/24 01:34:04;;;;;;;1.60;1.50;;;9.70;99.90;;;;;;4882542;29;20313;-78
2023/04/24 01:36:43;;;;;;;3.43;1.60;;;9.70;99.90;;;;;;5163407;27;20584;-80
2023/04/24 01:39:12;;;;;;;1.60;1.50;;;9.70;99.90;;;;;;5130415;27;20193;-80
2023/04/24 01:41:40;;;;;;;2.37;1.50;;;9.70;99.90;;;;;;5130029;27;20675;-79
2023/04/24 01:44:08;;;;;;;2.23;1.40;;;9.70;99.90;;;;;;5120698;27;20209;-79
2023/04/24 01:46:36;;;;;;;2.50;1.50;;;9.70;99.90;;;;;;5109550;28;20663;-79
2023/04/24 01:49:05;;;;;;;2.13;1.50;;;9.70;99.90;;;;;;5109487;28;20574;-77
2023/04/24 01:51:33;;;;;;;1.43;1.33;;;9.60;99.90;;;;;;5109524;28;20206;-78
2023/04/24 01:54:03;;;;;;;1.77;1.30;;;9.60;99.90;;;;;;5109558;28;20216;-74
2023/04/24 01:56:32;;;;;;;2.50;1.37;;;9.50;99.90;;;;;;5109581;28;20237;-77
2023/04/24 01:59:01;;;;;;;1.90;1.13;;;9.50;99.90;;;;;;5109162;28;20743;-78
2023/04/24 02:01:35;;;;;;;1.17;0.97;;;9.50;99.90;;;;;;5108976;28;20664;-78
2023/04/24 02:04:04;;;;;;;2.00;1.10;;;9.50;99.90;;;;;;5109073;28;20300;-75
2023/04/24 02:06:33;;;;;;;1.40;1.23;;;9.50;99.90;;;;;;5109390;28;20214;-76
2023/04/24 02:09:01;;;;;;;1.73;1.23;;;9.50;99.90;;;;;;5117263;28;20358;-77
2023/04/24 02:11:31;;;;;;;1.20;1.00;;;9.40;99.90;;;;;;5109623;28;20256;-78
2023/04/24 02:13:59;;;;;;;1.17;1.00;;;9.40;99.90;;;;;;5109074;28;20214;-75
2023/04/24 02:16:30;;;;;;;1.03;1.03;;;9.40;99.90;;;;;;5109226;28;20226;-73
2023/04/24 02:18:58;;;;;;;1.97;0.87;;;9.40;99.90;;;;;;5108706;28;20660;-73
2023/04/24 02:21:27;;;;;;;1.00;0.83;;;9.40;99.90;;;;;;5109005;28;20213;-73
2023/04/24 02:23:55;;;;;;;1.33;1.00;;;9.40;99.90;;;;;;5108581;28;20206;-73
2023/04/24 02:26:23;;;;;;;2.23;0.90;;;9.40;99.90;;;;;;5108902;28;20474;-71
2023/04/24 02:28:52;;;;;;;1.27;1.00;;;9.30;99.90;;;;;;5120919;28;20635;-75
2023/04/24 02:31:21;;;;;;;3.13;0.87;;;9.40;99.90;;;;;;5129336;27;20285;-75
2023/04/24 02:33:50;;;;;;;1.13;1.00;;;9.30;99.90;;;;;;5128958;28;20202;-77
2023/04/24 02:36:18;;;;;;;1.00;1.00;;;9.30;99.90;;;;;;5126200;27;20694;-78
2023/04/24 02:38:46;;;;;;;1.80;1.07;;;9.30;99.90;;;;;;5108796;28;20214;-75
2023/04/24 02:41:14;;;;;;;1.73;0.70;;;9.30;99.90;;;;;;5108544;28;20203;-78
2023/04/24 02:43:42;;;;;;;1.40;0.97;;;9.30;99.90;;;;;;5107825;28;20238;-78
2023/04/24 02:46:11;;;;;;;1.00;0.90;;;9.30;99.90;;;;;;5119870;28;20721;-79
2023/04/24 02:48:40;;;;;;;2.53;0.83;;;9.20;99.90;;;;;;5113016;28;20923;-79
2023/04/24 02:51:08;;;;;;;1.90;1.00;;;9.20;99.90;;;;;;5113379;28;20683;-75
2023/04/24 02:53:36;;;;;;;1.00;0.73;;;9.20;99.90;;;;;;5104401;28;20610;-76
2023/04/24 02:56:04;;;;;;;1.53;1.00;;;9.20;99.90;;;;;;5093099;28;20222;-75
2023/04/24 02:58:32;;;;;;;0.97;0.87;;;9.20;99.90;;;;;;5092755;28;20211;-76
2023/04/24 03:01:01;;;;;;;1.23;0.97;;;9.20;99.90;;;;;;5093476;28;20203;-78
2023/04/24 03:03:30;;;;;;;1.63;1.00;;;9.20;99.90;;;;;;5103183;28;20210;-77
2023/04/24 03:05:58;;;;;;;0.93;0.90;;;9.20;99.90;;;;;;5115034;28;20310;-77
2023/04/24 03:08:27;;;;;;;1.50;0.90;;;9.10;99.90;;;;;;5114779;28;20213;-75
2023/04/24 03:10:55;;;;;;;0.80;0.80;;;9.10;99.90;;;;;;5115017;28;20570;-77
2023/04/24 03:13:23;;;;;;;0.80;0.70;;;9.10;99.90;;;;;;5112654;28;20709;-76
2023/04/24 03:15:51;;;;;;;1.40;0.90;;;9.10;99.90;;;;;;5123786;28;20294;-76
2023/04/24 03:18:19;;;;;;;1.30;1.00;;;9.10;99.90;;;;;;5115419;27;20741;-79
2023/04/24 03:20:48;;;;;;;1.37;0.70;;;9.10;99.90;;;;;;5114464;28;20251;-76
2023/04/24 03:23:17;;;;;;;1.10;0.93;;;9.10;99.90;;;;;;5113303;28;20213;-79
2023/04/24 03:25:45;;;;;;;0.70;0.70;;;9.10;99.90;;;;;;5114564;28;20202;-80
2023/04/24 03:28:13;;;;;;;1.80;1.00;;;9.10;99.90;;;;;;5114499;28;20682;-78
2023/04/24 03:30:41;;;;;;;1.30;0.93;;;9.10;99.90;;;;;;5102192;28;20538;-77
2023/04/24 03:33:09;;;;;;;1.80;1.00;;;9.10;99.90;;;;;;5094168;28;20541;-79
2023/04/24 03:35:37;;;;;;;1.20;0.90;;;9.10;99.90;;;;;;5107320;28;20236;-80
2023/04/24 03:38:07;;;;;;;1.63;1.10;;;9.10;99.90;;;;;;5094128;28;20203;-80
2023/04/24 03:40:35;;;;;;;1.17;1.03;;;9.10;99.90;;;;;;5093613;28;20206;-77
2023/04/24 03:43:03;;;;;;;1.33;0.80;;;9.10;99.90;;;;;;5093783;28;20290;-77
2023/04/24 03:45:31;;;;;;;1.37;0.90;;;9.00;99.90;;;;;;5094178;28;20217;-77
2023/04/24 03:47:59;;;;;;;1.10;0.87;;;9.00;99.90;;;;;;5093689;28;20559;-76
2023/04/24 03:50:28;;;;;;;1.10;0.97;;;9.00;99.90;;;;;;5093451;28;20219;-75
2023/04/24 03:52:57;;;;;;;1.03;1.00;;;9.00;99.90;;;;;;5093614;28;20211;-78
2023/04/24 03:55:26;;;;;;;2.10;1.03;;;9.00;99.90;;;;;;5093570;28;20211;-77
2023/04/24 03:57:54;;;;;;;2.73;1.00;;;8.90;99.90;;;;;;5092502;28;20217;-75
2023/04/24 04:00:22;;;;;;;3.27;0.93;;;9.00;99.90;;;;;;5113196;28;20292;-79
2023/04/24 04:02:50;;;;;;;2.13;1.00;;;8.90;99.90;;;;;;5113590;28;20300;-80
2023/04/24 04:05:19;;;;;;;1.43;1.10;;;8.90;99.90;;;;;;5109048;28;20259;-77
2023/04/24 04:07:47;;;;;;;2.37;1.00;;;9.00;99.90;;;;;;5098984;28;20233;-78
2023/04/24 04:10:17;;;;;;;1.70;1.10;;;8.90;99.90;;;;;;5093720;28;20229;-75
2023/04/24 04:12:46;;;;;;;1.50;1.13;;;9.00;99.90;;;;;;5093371;28;20203;-77
2023/04/24 04:15:14;;;;;;;1.50;1.20;;;9.00;99.90;;;;;;5093679;28;20551;-78
2023/04/24 04:17:42;;;;;;;1.13;0.93;;;8.90;99.90;;;;;;5093361;28;20235;-77
2023/04/24 04:20:11;;;;;;;1.57;1.00;;;8.90;99.90;;;;;;5093843;28;20219;-72
2023/04/24 04:22:40;;;;;;;1.20;0.90;;;8.90;99.90;;;;;;5093382;28;20283;-72
2023/04/24 04:25:13;;;;;;;1.00;0.90;;;8.90;99.90;;;;;;5093060;28;20217;-75
2023/04/24 04:27:41;;;;;;;1.70;1.17;;;8.90;99.90;;;;;;5093715;28;20207;-73
2023/04/24 04:30:11;;;;;;;3.67;1.30;;;8.90;99.90;;;;;;5094059;28;20695;-76
2023/04/24 04:32:39;;;;;;;1.70;1.20;;;8.90;99.90;;;;;;5093333;28;20209;-76
2023/04/24 04:35:09;;;;;;;2.93;1.30;;;8.90;99.90;;;;;;5092919;28;20270;-75
2023/04/24 04:37:38;;;;;;;2.50;1.30;;;8.90;99.90;;;;;;5104376;28;20696;-77
2023/04/24 04:40:07;;;;;;;1.50;1.10;;;8.90;99.90;;;;;;5113367;27;20206;-79
2023/04/24 04:42:35;;;;;;;2.50;1.40;;;8.90;99.90;;;;;;5110514;28;20234;-77
2023/04/24 04:45:04;;;;;;;1.90;1.27;;;8.90;99.90;;;;;;5112941;28;20198;-78
2023/04/24 04:47:34;;;;;;;2.70;1.50;;;8.90;99.90;;;;;;5107524;28;20242;-77
2023/04/24 04:50:03;;;;;;;3.23;1.40;;;9.00;99.90;;;;;;5113139;28;20198;-76
2023/04/24 04:52:31;;;;;;;2.73;1.57;;;9.00;99.90;;;;;;5106630;28;20651;-77
2023/04/24 04:55:00;;;;;;;1.60;1.30;;;9.00;99.90;;;;;;5113025;28;20693;-78
2023/04/24 04:57:28;;;;;;;4.60;1.37;;;9.10;99.90;;;;;;5109462;28;20230;-78
2023/04/24 04:59:56;;;;;;;1.97;1.30;;;9.10;99.90;;;;;;5112419;28;20851;-80
2023/04/24 05:02:24;;;;;;;2.97;1.40;;;9.00;99.90;;;;;;5112181;28;20683;-77
2023/04/24 05:04:53;;;;;;;1.93;1.30;;;9.00;99.90;;;;;;5108844;28;20225;-78
2023/04/24 05:07:21;;;;;;;2.90;1.27;;;9.00;99.90;;;;;;5113531;28;20195;-75
2023/04/24 05:09:51;;;;;;;2.20;1.20;;;9.00;99.90;;;;;;5112930;28;20225;-76
2023/04/24 05:12:19;;;;;;;2.50;1.20;;;9.00;99.90;;;;;;5112943;28;20288;-73
2023/04/24 05:14:47;;;;;;;4.83;1.40;;;9.10;99.90;;;;;;5099583;28;20211;-77
2023/04/24 05:17:16;;;;;;;1.90;1.13;;;9.00;99.90;;;;;;5092519;28;20790;-77
2023/04/24 05:19:44;;;;;;;1.30;1.10;;;9.00;99.90;;;;;;5092854;28;20676;-78
2023/04/24 05:22:14;;;;;;;2.20;1.50;;;9.10;99.90;;;;;;5092249;28;20215;-74
2023/04/24 05:24:42;;;;;;;1.37;1.20;;;9.00;99.90;;;;;;5092477;28;20310;-75
2023/04/24 05:27:11;;;;;;;1.20;1.10;;;9.10;99.90;;;;;;5091965;28;20199;-78
2023/04/24 05:29:38;;;;;;;1.20;1.00;;;9.10;99.90;;;;;;5092128;28;20236;-74
2023/04/24 05:32:07;;;;;;;0.90;0.90;;;9.10;99.90;;;;;;5098945;28;20199;-75
2023/04/24 05:34:36;;;;;;;1.83;1.10;;;9.10;99.90;;;;;;5094600;28;20264;-77
2023/04/24 05:37:08;;;;;;;1.13;0.90;;;9.10;99.90;;;;;;5093125;28;20233;-79
2023/04/24 05:39:37;;;;;;;1.33;0.97;;;9.20;99.90;;;;;;5092744;28;20210;-76
2023/04/24 05:42:05;;;;;;;1.17;1.03;;;9.20;99.90;;;;;;5092291;28;20217;-77
2023/04/24 05:44:33;;;;;;;2.30;1.10;;;9.20;99.90;;;;;;5094607;28;20210;-77
2023/04/24 05:47:01;;;;;;;3.00;1.13;;;9.30;99.90;;;;;;5097917;28;20270;-78
2023/04/24 05:49:29;;;;;;;2.00;1.10;;;9.30;99.90;;;;;;5098017;28;20203;-75
2023/04/24 05:51:58;;;;;;;2.37;1.30;;;9.30;99.90;;;;;;5096041;28;20206;-78
2023/04/24 05:54:26;;;;;;;2.07;1.00;;;9.30;99.90;;;;;;5091995;28;20210;-78
2023/04/24 05:56:55;;;;;;;2.13;1.27;;;9.40;99.90;;;;;;5092387;28;20407;-78
2023/04/24 05:59:24;;;;;;;4.50;1.00;;;9.40;99.90;;;;;;5092009;28;20293;-79
2023/04/24 06:01:52;;;;;;;1.67;1.10;;;9.50;99.90;;;;;;5094302;28;20552;-79
2023/04/24 06:04:20;;;;;;;2.47;1.20;;;9.60;99.90;;;;;;5112606;28;20240;-79
2023/04/24 06:06:50;;;;;;;2.30;1.20;;;9.60;99.90;;;;;;5112270;28;20305;-79
2023/04/24 06:09:18;;;;;;;1.70;1.07;;;10.30;99.90;;;;;;5108047;28;20207;-79
2023/04/24 06:11:46;;;;;;;1.37;1.00;;;10.40;99.90;;;;;;5091713;28;20214;-78
2023/04/24 06:14:16;;;;;;;1.20;0.90;;;10.40;99.90;;;;;;5092031;28;20210;-78
2023/04/24 06:16:44;;;;;;;1.90;0.87;;;10.30;99.90;;;;;;5092159;28;20207;-76
2023/04/24 06:19:13;;;;;;;1.23;1.00;;;10.30;99.90;;;;;;5091532;28;20221;-80
2023/04/24 06:21:40;;;;;;;1.37;0.93;;;10.20;99.90;;;;;;5092887;28;20207;-78
2023/04/24 06:24:09;;;;;;;2.10;0.93;;;10.30;99.90;;;;;;5095423;28;20211;-78
2023/04/24 06:26:37;;;;;;;1.47;0.90;;;10.30;99.90;;;;;;5095219;28;20576;-79
2023/04/24 06:29:07;;;;;;;1.63;1.00;;;10.40;99.90;;;;;;5095286;28;20202;-80
2023/04/24 06:31:36;;;;;;;1.87;0.97;;;10.60;99.90;;;;;;5095028;28;20215;-77
2023/04/24 06:34:05;;;;;;;2.67;1.00;;;10.60;99.90;;;;;;5094480;28;20230;-80
2023/04/24 06:36:34;;;;;;;1.17;0.60;;;10.70;99.90;;;;;;5095150;28;20313;-79
2023/04/24 06:39:02;;;;;;;0.60;0.60;;;10.90;99.90;;;;;;5095090;28;20229;-80
2023/04/24 06:41:31;;;;;;;0.73;0.70;;;11.00;99.90;;;;;;5094927;28;20217;-79
2023/04/24 06:43:59;;;;;;;3.80;0.80;;;11.10;99.90;;;;;;5094604;28;20225;-77
2023/04/24 06:46:27;;;;;;;0.87;0.87;;;11.20;99.90;;;;;;5094127;28;20211;-77
2023/04/24 06:48:57;;;;;;;1.43;1.00;;;11.20;99.90;;;;;;5094325;28;20206;-79
2023/04/24 06:51:26;;;;;;;1.13;0.60;;;11.10;99.90;;;;;;5094742;28;20211;-76
2023/04/24 06:53:55;;;;;;;2.33;0.80;;;11.10;99.90;;;;;;5094253;28;20298;-77
2023/04/24 06:56:23;;;;;;;1.20;1.10;;;11.00;99.90;;;;;;5094600;28;20214;-76
2023/04/24 06:58:53;;;;;;;0.87;0.73;;;10.80;99.90;;;;;;5101664;28;20260;-77
2023/04/24 07:01:21;;;;;;;0.97;0.80;;;10.80;99.90;;;;;;5112232;28;20234;-76
2023/04/24 07:03:49;;;;;;;2.83;0.90;;;10.80;99.90;;;;;;5107566;28;20576;-79
2023/04/24 07:06:22;;;;;;;1.10;1.00;;;10.80;99.90;;;;;;5114095;28;20210;-77
2023/04/24 07:08:50;;;;;;;1.67;0.80;;;10.80;99.90;;;;;;5113907;28;20292;-79
2023/04/24 07:11:18;;;;;;;2.40;0.80;;;10.70;99.90;;;;;;5113889;28;20206;-78
2023/04/24 07:13:46;;;;;;;2.53;1.30;;;10.60;99.90;;;;;;5111191;28;20199;-80
2023/04/24 07:16:14;;;;;;;0.77;0.70;;;10.70;99.90;;;;;;5113661;28;20287;-78
2023/04/24 07:18:43;;;;;;;2.03;0.70;;;10.70;99.90;;;;;;5094003;28;20664;-75
2023/04/24 07:21:11;;;;;;;1.37;0.90;;;10.70;99.90;;;;;;5093772;28;20199;-76
2023/04/24 07:23:42;;;;;;;1.77;0.67;;;10.70;99.90;;;;;;5094352;28;20217;-77
2023/04/24 07:26:10;;;;;;;1.30;0.80;;;10.80;99.90;;;;;;5113541;28;20249;-79
2023/04/24 07:28:38;;;;;;;2.10;0.80;;;10.80;99.90;;;;;;5115656;28;20292;-76
2023/04/24 07:31:06;;;;;;;1.00;0.80;;;10.90;99.90;;;;;;5102828;28;20258;-77
2023/04/24 07:33:35;;;;;;;2.13;0.90;;;10.90;99.90;;;;;;5094290;28;20198;-75
2023/04/24 07:36:04;;;;;;;0.93;0.70;;;11.00;99.90;;;;;;5093858;28;20573;-77
2023/04/24 07:38:33;;;;;;;0.83;0.60;;;11.10;99.90;;;;;;5094014;28;20672;-76
2023/04/24 07:41:02;;;;;;;0.70;0.63;;;11.20;99.90;;;;;;5093828;28;20229;-75
2023/04/24 07:43:30;;;;;;;1.07;0.53;;;11.60;99.90;;;;;;5113160;28;20209;-76
2023/04/24 07:45:58;;;;;;;1.43;0.77;;;11.90;99.90;;;;;;5107803;28;20293;-76
2023/04/24 07:48:26;;;;;;;0.80;0.53;;;12.30;99.90;;;;;;5111481;28;20217;-80
2023/04/24 07:50:55;;;;;;;2.47;0.53;;;12.70;99.90;;;;;;5111740;28;20208;-77
2023/04/24 07:53:23;;;;;;;2.47;0.60;;;13.10;99.90;;;;;;5102071;28;20298;-76
2023/04/24 07:55:51;;;;;;;2.50;0.53;;;13.40;99.90;;;;;;5110051;28;20271;-77
2023/04/24 07:58:21;;;;;;;0.90;0.60;;;13.80;99.90;;;;;;5114106;28;20702;-77
2023/04/24 08:00:49;;;;;;;1.13;0.50;;;13.60;99.90;;;;;;5114375;28;20237;-78
2023/04/24 08:03:19;;;;;;;2.40;0.50;;;13.80;99.90;;;;;;5098409;28;20600;-77
2023/04/24 08:05:47;;;;;;;0.50;0.43;;;13.80;99.90;;;;;;5093257;28;20537;-77
2023/04/24 08:08:15;;;;;;;1.33;0.57;;;13.60;99.90;;;;;;5097171;28;20221;-76
2023/04/24 08:10:44;;;;;;;0.40;0.40;;;13.50;99.90;;;;;;5113889;28;20297;-77
2023/04/24 08:13:12;;;;;;;0.50;0.50;;;13.20;99.90;;;;;;5118995;28;20206;-77
2023/04/24 08:15:41;;;;;;;0.83;0.40;;;13.10;99.90;;;;;;5103119;28;20209;-78
2023/04/24 08:18:11;;;;;;;0.93;0.60;;;12.80;99.90;;;;;;5097060;28;20329;-78
2023/04/24 08:20:40;;;;;;;0.57;0.50;;;12.50;99.90;;;;;;5114434;28;20196;-77
2023/04/24 08:23:08;;;;;;;0.73;0.40;;;12.30;99.90;;;;;;5113936;28;20213;-76
2023/04/24 08:25:36;;;;;;;2.03;0.60;;;12.30;99.90;;;;;;5095137;28;20231;-74
2023/04/24 08:28:04;;;;;;;0.50;0.50;;;12.30;99.90;;;;;;5093360;28;20203;-78
2023/04/24 08:30:32;;;;;;;0.47;0.40;;;12.20;99.90;;;;;;5111844;28;20293;-77
2023/04/24 08:33:02;;;;;;;0.97;0.57;;;12.00;99.90;;;;;;5106673;28;20218;-75
2023/04/24 08:35:30;;;;;;;0.73;0.50;;;11.90;99.90;;;;;;5100104;28;20289;-78
2023/04/24 08:37:58;;;;;;;1.43;0.63;;;11.80;99.90;;;;;;5110075;28;20209;-75
2023/04/24 08:40:29;;;;;;;0.80;0.50;;;11.80;99.90;;;;;;5113070;28;20238;-77
2023/04/24 08:42:58;;;;;;;0.73;0.70;;;11.70;99.90;;;;;;5112365;28;20198;-77
2023/04/24 08:45:26;;;;;;;1.23;0.50;;;11.60;99.90;;;;;;5113620;28;20210;-74
2023/04/24 08:47:54;;;;;;;1.87;0.67;;;11.60;99.90;;;;;;5094067;28;20211;-76
2023/04/24 08:50:25;;;;;;;1.40;0.50;;;11.60;99.90;;;;;;5093772;28;20251;-75
2023/04/24 08:52:54;;;;;;;1.97;0.80;;;11.60;99.90;;;;;;5093672;28;20207;-76
2023/04/24 08:55:22;;;;;;;0.97;0.83;;;11.60;99.90;;;;;;5094053;28;20238;-75
2023/04/24 08:57:53;;;;;;;0.87;0.63;;;11.50;99.90;;;;;;5097640;28;20206;-76
2023/04/24 09:00:22;;;;;;;2.77;0.67;;;11.30;99.90;;;;;;5113604;28;20225;-75
2023/04/24 09:02:54;;;;;;;1.47;0.90;;;11.20;99.90;;;;;;5092874;28;20668;-78
2023/04/24 09:05:24;;;;;;;2.33;1.30;;;11.10;99.90;;;;;;5092370;28;20275;-78
2023/04/24 09:07:57;;;;;;;1.80;1.30;;;10.70;99.90;;;;;;5092583;28;20728;-79
2023/04/24 09:10:27;;;;;;;1.70;1.40;;;10.30;99.90;;;;;;5092443;28;20235;-77
2023/04/24 09:13:01;;;;;;;3.53;1.20;;;10.00;99.90;;;;;;5092228;28;20656;-77
2023/04/24 09:15:30;;;;;;;3.03;1.60;;;9.70;99.90;;;;;;5110281;28;20217;-77
2023/04/24 09:17:58;;;;;;;1.40;1.30;;;9.60;99.90;;;;;;5110324;28;20214;-79
2023/04/24 09:20:28;;;;;;;5.53;1.60;;;9.50;99.90;;;;;;5090583;28;20498;-76
2023/04/24 09:22:58;;;;;;;2.20;1.80;;;9.50;99.90;;;;;;5087094;28;20476;-79
2023/04/24 09:25:32;;;;;;;2.30;1.40;;;9.60;99.90;;;;;;5090760;28;20203;-77
2023/04/24 09:28:02;;;;;;;2.40;1.20;;;9.70;99.90;;;;;;5093648;28;20306;-78
2023/04/24 09:30:31;;;;;;;1.30;1.20;;;9.90;99.90;;;;;;5112162;28;20309;-78
2023/04/24 09:33:12;;;;;;;2.47;1.20;;;10.00;99.90;;;;;;5109394;28;20226;-76
2023/04/24 09:35:43;;;;;;;1.97;1.77;;;10.10;99.90;;;;;;5118759;28;20240;-77
2023/04/24 09:38:11;;;;;;;7.60;2.60;;;10.20;99.90;;;;;;5093559;28;20207;-77
2023/04/24 09:40:41;;;;;;;3.67;1.90;;;10.20;99.90;;;;;;5092031;28;20233;-79
2023/04/24 09:43:12;;;;;;;3.93;1.70;;;10.20;99.90;;;;;;5091315;28;20210;-78
2023/04/24 09:45:40;;;;;;;2.57;1.90;;;10.30;99.90;;;;;;5091308;28;20680;-75
2023/04/24 09:48:11;;;;;;;3.73;1.93;;;10.40;99.90;;;;;;5091428;28;20620;-76
2023/04/24 09:50:39;;;;;;;3.97;2.40;;;10.60;99.90;;;;;;5092253;28;20209;-76
2023/04/24 09:53:10;;;;;;;2.73;1.20;;;10.90;99.90;;;;;;5091672;28;20202;-79
2023/04/24 09:55:40;;;;;;;1.73;1.43;;;11.20;99.90;;;;;;5091600;28;20708;-79
2023/04/24 09:58:10;;;;;;;3.23;1.30;;;11.50;99.90;;;;;;5113965;28;20651;-77
2023/04/24 10:00:38;;;;;;;3.03;1.30;;;12.00;99.90;;;;;;5116556;28;20313;-77
2023/04/24 10:03:06;;;;;;;1.30;1.20;;;12.50;99.90;;;;;;5111056;28;20207;-73
2023/04/24 10:05:36;;;;;;;0.93;0.93;;;13.30;99.90;;;;;;5095806;28;20207;-77
2023/04/24 10:08:06;;;;;;;3.23;1.20;;;13.70;99.90;;;;;;5096076;28;20213;-77
2023/04/24 10:10:39;;;;;;;1.47;1.20;;;14.20;99.90;;;;;;5095545;28;20292;-77
2023/04/24 10:13:09;;;;;;;1.03;0.97;;;14.60;99.90;;;;;;5095109;28;20318;-75
2023/04/24 10:15:38;;;;;;;1.00;0.90;;;14.80;99.90;;;;;;5115874;28;20615;-76
2023/04/24 10:18:07;;;;;;;1.10;1.00;;;15.00;99.90;;;;;;5115888;28;20225;-75
2023/04/24 10:20:37;;;;;;;1.33;1.10;;;14.90;99.90;;;;;;5114225;28;20317;-76
2023/04/24 10:23:05;;;;;;;3.50;1.27;;;14.30;99.90;;;;;;5114713;28;20234;-75
2023/04/24 10:25:36;;;;;;;1.07;0.93;;;14.40;99.90;;;;;;5100279;28;20202;-76
2023/04/24 10:28:05;;;;;;;2.13;1.30;;;14.40;99.90;;;;;;5116497;28;20217;-74
2023/04/24 10:30:36;;;;;;;1.33;1.23;;;14.20;99.90;;;;;;5116329;28;20203;-76
2023/04/24 10:33:05;;;;;;;1.87;1.20;;;14.10;99.90;;;;;;5107294;28;20207;-72
2023/04/24 10:35:36;;;;;;;2.70;1.27;;;13.80;99.90;;;;;;5101726;28;20225;-76
2023/04/24 10:38:07;;;;;;;2.67;1.80;;;14.00;99.90;;;;;;5116000;28;20198;-75
2023/04/24 10:40:37;;;;;;;3.13;1.40;;;14.20;99.90;;;;;;5115743;28;20595;-74
2023/04/24 10:43:08;;;;;;;1.10;1.10;;;14.20;99.90;;;;;;5115690;28;20234;-75
2023/04/24 10:45:37;;;;;;;1.70;1.00;;;14.30;99.90;;;;;;5105611;28;20302;-77
2023/04/24 10:48:10;;;;;;;1.60;1.30;;;14.10;99.90;;;;;;5115359;28;20230;-76
2023/04/24 10:50:48;;;;;;;2.07;1.23;;;13.90;99.90;;;;;;5112407;28;20205;-76
2023/04/24 10:53:18;;;;;;;3.80;1.43;;;14.10;99.90;;;;;;5112680;28;20198;-75
2023/04/24 10:55:50;;;;;;;1.70;1.40;;;14.00;99.90;;;;;;5105331;28;20649;-76
2023/04/24 10:58:23;;;;;;;2.27;1.70;;;14.10;99.90;;;;;;5115346;28;20198;-76
2023/04/24 11:00:58;;;;;;;1.63;1.10;;;14.60;99.90;;;;;;5115342;28;20585;-76
2023/04/24 11:03:29;;;;;;;1.87;1.30;;;14.70;99.90;;;;;;5114113;28;20372;-76
2023/04/24 11:06:00;;;;;;;3.30;1.40;;;15.10;99.90;;;;;;5115454;28;20216;-77
2023/04/24 11:08:31;;;;;;;2.83;1.10;;;15.40;99.90;;;;;;5140720;27;20225;-75
2023/04/24 11:11:03;;;;;;;2.30;1.60;;;15.50;99.90;;;;;;5157410;27;20193;-73
2023/04/24 11:14:04;;;;;;;2.70;1.80;;;15.70;99.90;;;;;;5150651;27;20214;-75
2023/04/24 11:16:34;;;;;;;4.80;2.23;;;16.30;99.90;;;;;;5135310;27;20209;-76
2023/04/24 11:19:04;;;;;;;2.30;1.43;;;16.70;99.90;;;;;;5135365;27;20209;-76
2023/04/24 11:21:33;;;;;;;5.43;2.20;;;16.90;99.90;;;;;;5135178;27;20244;-77
2023/04/24 11:24:26;;;;;;;2.17;1.40;;;16.20;99.90;;;;;;5135061;27;20206;-73
2023/04/24 11:26:57;;;;;;;4.53;2.37;;;16.00;99.90;;;;;;5135873;27;20266;-73
2023/04/24 11:29:41;;;;;;;8.00;5.77;;;15.30;99.90;;;;;;5142168;27;20253;-75
2023/04/24 11:32:20;;;;;;;4.47;2.47;;;14.00;99.90;;;;;;5150132;27;20216;-74
2023/04/24 11:34:52;;;;;;;3.00;1.10;;;13.70;99.90;;;;;;5173163;27;20498;-77
2023/04/24 11:37:20;;;;;;;0.90;0.80;;;13.40;99.90;;;;;;5161106;27;20627;-78
2023/04/24 11:39:51;;;;;;;1.33;1.20;;;13.10;99.90;;;;;;5153330;27;20234;-78
2023/04/24 11:42:22;;;;;;;1.20;1.00;;;12.80;99.90;;;;;;5155062;27;20200;-74
2023/04/24 11:44:51;;;;;;;3.30;1.40;;;12.80;99.90;;;;;;5156435;27;20200;-73
2023/04/24 11:47:19;;;;;;;8.97;3.37;;;13.10;99.90;;;;;;5154475;27;20203;-76
2023/04/24 11:49:47;;;;;;;0.80;0.80;;;13.50;99.90;;;;;;5156105;27;20594;-73
2023/04/24 11:52:17;;;;;;;3.30;1.33;;;13.60;99.90;;;;;;5155991;27;20612;-74
2023/04/24 11:54:50;;;;;;;2.37;0.77;;;13.60;99.90;;;;;;5157784;27;20208;-77
2023/04/24 11:57:22;;;;;;;0.80;0.80;;;13.90;99.90;;;;;;5153099;27;20205;-77
2023/04/24 11:59:50;;;;;;;1.90;0.73;;;13.70;99.90;;;;;;5151419;27;20201;-76
2023/04/24 12:02:22;;;;;;;0.73;0.73;;;13.50;99.90;;;;;;5154611;27;20197;-77
2023/04/24 12:04:51;;;;;;;1.43;1.00;;;12.90;99.90;;;;;;5152306;27;20303;-76
2023/04/24 12:07:19;;;;;;;1.73;1.00;;;12.80;99.90;;;;;;5155584;27;20351;-76
2023/04/24 12:09:49;;;;;;;1.73;0.97;;;12.60;99.90;;;;;;5154669;27;20662;-78
2023/04/24 12:12:21;;;;;;;0.87;0.80;;;12.70;99.90;;;;;;5154626;27;20201;-77
2023/04/24 12:14:50;;;;;;;1.70;1.00;;;12.50;99.90;;;;;;5152137;27;20669;-78
2023/04/24 12:17:18;;;;;;;2.10;1.00;;;12.80;99.90;;;;;;5153241;27;20292;-77
2023/04/24 12:19:47;;;;;;;1.40;1.07;;;13.00;99.90;;;;;;5154093;27;20254;-77
2023/04/24 12:22:16;;;;;;;3.03;1.40;;;13.00;99.90;;;;;;5154811;27;20220;-80
2023/04/24 12:24:57;;;;;;;1.40;1.10;;;12.90;99.90;;;;;;5154575;27;20659;-77
2023/04/24 12:27:29;;;;;;;1.70;1.47;;;13.30;99.90;;;;;;5138888;27;20273;-77
2023/04/24 12:29:58;;;;;;;2.67;1.37;;;14.00;99.90;;;;;;5135428;27;20244;-78
2023/04/24 12:32:27;;;;;;;4.17;1.40;;;14.60;99.90;;;;;;5133797;27;20245;-77
2023/04/24 12:34:56;;;;;;;2.60;1.40;;;15.20;99.90;;;;;;5134689;27;20225;-77
2023/04/24 12:37:26;;;;;;;2.00;1.30;;;15.30;99.90;;;;;;5134065;27;20568;-77
2023/04/24 12:40:02;;;;;;;2.40;1.30;;;15.60;99.90;;;;;;5134207;27;20570;-75
2023/04/24 12:42:32;;;;;;;1.63;1.13;;;15.20;99.90;;;;;;5133775;27;20240;-78
2023/04/24 12:45:02;;;;;;;3.77;1.50;;;15.20;99.90;;;;;;5134383;27;20217;-77
2023/04/24 12:47:31;;;;;;;1.97;1.20;;;15.60;99.90;;;;;;5134085;27;20300;-76
2023/04/24 12:49:59;;;;;;;1.63;1.10;;;15.30;99.90;;;;;;5133751;27;20279;-78
2023/04/24 12:52:29;;;;;;;1.20;1.10;;;15.40;99.90;;;;;;5139534;27;20632;-75
2023/04/24 12:55:00;;;;;;;1.53;0.93;;;15.30;99.90;;;;;;5154730;27;20201;-78
2023/04/24 12:57:31;;;;;;;2.80;1.20;;;15.50;99.90;;;;;;5154557;27;20341;-76
2023/04/24 12:59:59;;;;;;;1.47;1.00;;;15.50;99.90;;;;;;5138141;27;20725;-77
2023/04/24 13:02:30;;;;;;;1.43;1.10;;;15.30;99.90;;;;;;5146308;27;20260;-76